PORT of FAABORG HAVN

Država: Denmark Država: Denmark [DK]
Latitude/Longitude: 55.094° / 10.235° Prikaži na mapi
Vrijeme:  [UTC +2]
UN/LOCODE: DKFAA
Brod je Trenutno u Luci: 5

Posljednji dolasci i odlasci


Ime broda
Dolazak (UTC)
Dolazak (LT)
Isplovljenje (UTC)
Isplovljenje (LT)
Vessel Type: Putnički brodovi  FAABORG III 2014-09-02 05:23:00 2014-09-02 07:23:00
Vessel Type: Putnički brodovi  FAABORG III 2014-09-01 17:33:00 2014-09-01 19:33:00 2014-09-02 04:00:00 2014-09-02 06:00:00
Vessel Type: Putnički brodovi  SKJOLDNAES 2014-09-02 02:55:00 2014-09-02 04:55:00 2014-09-02 03:14:00 2014-09-02 05:14:00
Vessel Type: Putnički brodovi  FAABORG III 2014-09-01 15:33:00 2014-09-01 17:33:00 2014-09-01 16:15:00 2014-09-01 18:15:00
Vessel Type: Putnički brodovi  FAABORG III 2014-09-01 13:41:00 2014-09-01 15:41:00 2014-09-01 14:07:00 2014-09-01 16:07:00
Vessel Type: Putnički brodovi  SKJOLDNAES 2014-09-01 13:37:00 2014-09-01 15:37:00 2014-09-01 14:03:00 2014-09-01 16:03:00
Vessel Type: Putnički brodovi  FAABORG III 2014-09-01 09:33:00 2014-09-01 11:33:00 2014-09-01 12:13:00 2014-09-01 14:13:00
Vessel Type: Tegljač,pilot itd.  DANPILOT LODSEN1 2014-09-01 10:17:00 2014-09-01 12:17:00
Vessel Type: Putnički brodovi  SKJOLDNAES 2014-09-01 08:12:00 2014-09-01 10:12:00 2014-09-01 08:44:00 2014-09-01 10:44:00
Vessel Type: Putnički brodovi  FAABORG III 2014-09-01 07:31:00 2014-09-01 09:31:00 2014-09-01 08:06:00 2014-09-01 10:06:00

Očekivani dolasci


Ime broda
Scheduled Arrival (UTC)
Dolazak planiran (lokalno)
Približno vrijeme dolaska (UTC)
Približno vrijeme dolaska (lokalno)
Podaci nisu pronađeni

Wind Forecast


    
Vrijeme (UTC)
Brzina
Direction
Temperature
2014-09-02 06:00:00 12 knots 94° 15°C
2014-09-02 09:00:00 7 knots 92° 15°C
2014-09-02 12:00:00 6 knots 98° 16°C
2014-09-02 15:00:00 5 knots 109° 17°C
2014-09-02 18:00:00 5 knots 102° 17°C
2014-09-02 21:00:00 6 knots 87° 15°C
2014-09-03 00:00:00 6 knots 92° 15°C
2014-09-03 03:00:00 6 knots 85° 14°C
2014-09-03 06:00:00 6 knots 82° 14°C
2014-09-03 09:00:00 6 knots 106° 15°C
2014-09-03 12:00:00 6 knots 131° 16°C
2014-09-03 15:00:00 7 knots 120° 16°C
2014-09-03 18:00:00 7 knots 112° 16°C
2014-09-03 21:00:00 10 knots 96° 15°C
2014-09-04 00:00:00 10 knots 97° 15°C
2014-09-04 03:00:00 10 knots 92° 14°C